createdAt,value
2019-04-30T00:00:19.585Z,42.50
2019-04-30T00:02:38.349Z,45.70
2019-04-30T00:04:42.433Z,41.27
2019-04-30T00:06:50.125Z,66.20
2019-04-30T00:08:57.843Z,40.67
2019-04-30T00:11:05.453Z,49.83
2019-04-30T00:13:17.768Z,50.50
2019-04-30T00:15:22.577Z,90.30
2019-04-30T00:17:30.014Z,75.17
2019-04-30T00:19:37.666Z,76.80
2019-04-30T00:21:48.283Z,45.20
2019-04-30T00:23:56.150Z,34.57
2019-04-30T00:26:08.720Z,33.80
2019-04-30T00:28:15.149Z,44.50
2019-04-30T00:30:25.112Z,48.00
2019-04-30T00:32:32.501Z,43.90
2019-04-30T00:34:40.204Z,32.37
2019-04-30T00:36:47.993Z,40.37
2019-04-30T00:38:55.712Z,42.97
2019-04-30T00:41:06.787Z,46.20
2019-04-30T00:43:12.740Z,47.77
2019-04-30T00:45:20.336Z,43.43
2019-04-30T00:47:28.188Z,42.47
2019-04-30T00:49:36.026Z,39.27
2019-04-30T00:51:45.330Z,64.40
2019-04-30T00:53:53.256Z,38.10
2019-04-30T00:56:01.059Z,48.53
2019-04-30T00:58:08.828Z,40.53
2019-04-30T01:00:25.218Z,41.20
2019-04-30T01:02:45.581Z,47.40
2019-04-30T01:05:00.172Z,93.03
2019-04-30T01:07:08.489Z,52.53
2019-04-30T01:09:15.580Z,45.87
2019-04-30T01:11:25.020Z,47.27
2019-04-30T01:13:32.877Z,45.30
2019-04-30T01:15:43.974Z,79.70
2019-04-30T01:17:50.938Z,36.93
2019-04-30T01:19:59.268Z,42.60
2019-04-30T01:22:08.957Z,41.97
2019-04-30T01:24:16.709Z,42.87
2019-04-30T01:26:29.652Z,67.03
2019-04-30T01:28:34.317Z,44.40
2019-04-30T01:30:42.434Z,50.53
2019-04-30T01:32:56.480Z,53.23
2019-04-30T01:34:59.596Z,54.80
2019-04-30T01:37:08.738Z,54.37
2019-04-30T01:39:16.732Z,43.63
2019-04-30T01:41:27.309Z,56.93
2019-04-30T01:43:34.719Z,47.37
2019-04-30T01:45:42.489Z,43.10
2019-04-30T01:47:50.113Z,37.20
2019-04-30T01:50:00.980Z,64.70
2019-04-30T01:52:07.270Z,90.30
2019-04-30T01:54:20.815Z,115.80
2019-04-30T01:56:41.851Z,44.97
2019-04-30T01:58:59.393Z,42.57
2019-04-30T02:01:12.550Z,52.77
2019-04-30T02:03:20.164Z,42.90
2019-04-30T02:05:28.730Z,43.30
2019-04-30T02:07:36.567Z,41.33
2019-04-30T02:09:44.363Z,31.00
2019-04-30T02:11:52.149Z,35.10
2019-04-30T02:13:59.853Z,38.20
2019-04-30T02:16:08.651Z,30.40
2019-04-30T02:18:16.450Z,32.33
2019-04-30T02:20:24.071Z,45.37
2019-04-30T02:22:31.841Z,44.83
2019-04-30T02:24:39.556Z,38.10
2019-04-30T02:26:48.490Z,97.67
2019-04-30T02:28:56.450Z,29.93
2019-04-30T02:31:04.254Z,30.03
2019-04-30T02:33:12.080Z,32.97
2019-04-30T02:35:44.437Z,52.83
2019-04-30T02:38:15.312Z,68.30
2019-04-30T02:40:23.008Z,38.07
2019-04-30T02:42:31.861Z,41.30
2019-04-30T02:44:42.416Z,43.77
2019-04-30T02:46:52.299Z,31.97
2019-04-30T02:49:01.709Z,32.07
2019-04-30T02:51:13.365Z,31.90
2019-04-30T02:54:05.440Z,31.57
2019-04-30T02:56:13.060Z,30.20
2019-04-30T02:58:21.113Z,29.07
2019-04-30T03:00:32.547Z,31.47
2019-04-30T03:02:39.341Z,28.93
2019-04-30T03:04:50.121Z,34.73
2019-04-30T03:06:59.552Z,34.30
2019-04-30T03:09:09.978Z,36.47
2019-04-30T03:11:16.877Z,30.33
2019-04-30T03:13:24.799Z,39.37
2019-04-30T03:15:32.547Z,31.23
2019-04-30T03:17:52.244Z,29.27
2019-04-30T03:20:31.379Z,29.87
2019-04-30T03:22:30.093Z,34.57
2019-04-30T03:24:39.799Z,32.37
2019-04-30T03:26:49.687Z,31.57
2019-04-30T03:28:56.551Z,45.37
2019-04-30T03:31:04.980Z,33.00
2019-04-30T03:33:13.558Z,37.07
2019-04-30T03:35:22.788Z,31.23
2019-04-30T03:37:30.691Z,25.93
2019-04-30T03:39:39.934Z,36.20
2019-04-30T03:41:50.221Z,32.03
2019-04-30T03:44:13.842Z,35.27
2019-04-30T03:46:09.894Z,30.93
2019-04-30T03:48:15.688Z,35.03
2019-04-30T03:50:23.443Z,29.43
2019-04-30T03:52:31.123Z,30.40
2019-04-30T03:54:40.840Z,33.43
2019-04-30T03:56:50.239Z,33.47
2019-04-30T03:59:00.146Z,28.60
2019-04-30T04:01:29.383Z,63.13
2019-04-30T04:03:42.224Z,47.73
2019-04-30T04:06:09.389Z,34.63
2019-04-30T04:08:26.032Z,35.00
2019-04-30T04:10:55.447Z,30.60
2019-04-30T04:13:03.173Z,39.47
2019-04-30T04:15:11.066Z,26.87
2019-04-30T04:17:20.280Z,24.27
2019-04-30T04:19:29.215Z,26.77
2019-04-30T04:21:39.177Z,33.77
2019-04-30T04:23:49.171Z,31.57
2019-04-30T04:25:55.677Z,30.70
2019-04-30T04:28:03.335Z,34.93
2019-04-30T04:30:11.309Z,33.80
2019-04-30T04:32:23.512Z,31.30
2019-04-30T04:34:30.261Z,39.10
2019-04-30T04:36:39.969Z,31.70
2019-04-30T04:38:50.411Z,28.23
2019-04-30T04:41:02.671Z,29.87
2019-04-30T04:43:06.108Z,26.40
2019-04-30T04:45:14.035Z,26.10
2019-04-30T04:47:21.770Z,30.33
2019-04-30T04:49:30.537Z,33.17
2019-04-30T04:51:42.182Z,32.87
2019-04-30T04:53:50.022Z,27.60
2019-04-30T04:55:59.732Z,26.40
2019-04-30T04:58:06.773Z,28.43
2019-04-30T05:00:14.633Z,32.90
2019-04-30T05:02:49.568Z,36.73
2019-04-30T05:04:59.773Z,26.03
2019-04-30T05:07:06.417Z,22.57
2019-04-30T05:09:14.207Z,25.73
2019-04-30T05:11:21.937Z,24.70
2019-04-30T05:13:29.910Z,26.10
2019-04-30T05:15:39.014Z,25.70
2019-04-30T05:17:46.863Z,22.97
2019-04-30T05:19:54.425Z,29.00
2019-04-30T05:22:02.148Z,22.97
2019-04-30T05:24:09.882Z,22.80
2019-04-30T05:26:19.070Z,23.63
2019-04-30T05:28:26.735Z,22.23
2019-04-30T05:30:34.493Z,30.17
2019-04-30T05:32:42.173Z,23.70
2019-04-30T05:34:49.779Z,28.07
2019-04-30T05:36:58.486Z,26.63
2019-04-30T05:39:08.783Z,26.27
2019-04-30T05:41:16.611Z,29.80
2019-04-30T05:43:24.197Z,23.03
2019-04-30T05:45:33.731Z,23.07
2019-04-30T05:47:41.601Z,21.90
2019-04-30T05:49:49.284Z,25.50
2019-04-30T05:51:56.996Z,22.50
2019-04-30T05:54:04.664Z,24.43
2019-04-30T05:56:12.496Z,23.27
2019-04-30T05:58:20.235Z,24.67
2019-04-30T06:00:30.295Z,28.60
2019-04-30T06:02:39.724Z,26.97
2019-04-30T06:04:48.957Z,24.23
2019-04-30T06:06:56.463Z,23.13
2019-04-30T06:09:14.805Z,22.13
2019-04-30T06:11:36.607Z,31.27
2019-04-30T06:13:59.325Z,23.97
2019-04-30T06:16:13.027Z,35.37
2019-04-30T06:18:20.739Z,25.03
2019-04-30T06:20:28.874Z,24.13
2019-04-30T06:22:38.495Z,21.93
2019-04-30T06:24:46.032Z,31.90
2019-04-30T06:26:53.845Z,29.03
2019-04-30T06:29:02.108Z,25.87
2019-04-30T06:31:09.982Z,29.07
2019-04-30T06:33:19.285Z,25.33
2019-04-30T06:35:29.234Z,24.93
2019-04-30T06:37:38.728Z,29.47
2019-04-30T06:39:46.392Z,23.40
2019-04-30T06:42:04.280Z,22.70
2019-04-30T06:44:04.138Z,20.03
2019-04-30T06:46:11.885Z,26.20
2019-04-30T06:48:20.943Z,24.47
2019-04-30T06:50:29.301Z,36.60
2019-04-30T06:52:38.884Z,24.87
2019-04-30T06:54:46.882Z,23.83
2019-04-30T06:56:54.499Z,22.00
2019-04-30T06:59:02.225Z,27.30
2019-04-30T07:01:10.032Z,34.00
2019-04-30T07:03:19.139Z,24.47
2019-04-30T07:05:28.616Z,23.07
2019-04-30T07:07:41.198Z,25.53
2019-04-30T07:10:20.319Z,25.00
2019-04-30T07:12:48.974Z,22.50
2019-04-30T07:14:59.066Z,29.00
2019-04-30T07:17:06.456Z,22.67
2019-04-30T07:19:14.001Z,26.57
2019-04-30T07:21:21.837Z,20.33
2019-04-30T07:23:29.545Z,22.83
2019-04-30T07:25:39.112Z,27.70
2019-04-30T07:27:46.997Z,24.03
2019-04-30T07:29:54.646Z,26.30
2019-04-30T07:32:02.229Z,24.45
2019-04-30T07:34:09.882Z,20.47
2019-04-30T07:36:19.380Z,18.23
2019-04-30T07:38:29.390Z,19.10
2019-04-30T07:40:36.358Z,21.27
2019-04-30T07:42:45.152Z,18.27
2019-04-30T07:44:52.958Z,18.37
2019-04-30T07:47:02.056Z,21.67
2019-04-30T07:49:10.195Z,23.52
2019-04-30T07:51:21.178Z,15.80
2019-04-30T07:53:27.468Z,18.62
2019-04-30T07:55:35.118Z,21.83
2019-04-30T07:57:42.817Z,18.53
2019-04-30T07:59:50.523Z,17.57
2019-04-30T08:02:07.638Z,17.93
2019-04-30T08:04:13.811Z,18.43
2019-04-30T08:06:22.466Z,18.50
2019-04-30T08:08:30.590Z,18.47
2019-04-30T08:10:39.400Z,17.43
2019-04-30T08:12:49.908Z,18.62
2019-04-30T08:14:59.319Z,21.37
2019-04-30T08:17:08.752Z,21.68
2019-04-30T08:19:16.816Z,19.30
2019-04-30T08:21:24.682Z,21.50
2019-04-30T08:23:36.935Z,18.13
2019-04-30T08:25:42.257Z,16.45
2019-04-30T08:27:50.094Z,19.40
2019-04-30T08:29:59.219Z,21.40
2019-04-30T08:32:09.022Z,22.55
2019-04-30T08:34:16.786Z,18.55
2019-04-30T08:36:24.488Z,20.77
2019-04-30T08:38:32.144Z,26.52
2019-04-30T08:40:52.810Z,20.88
2019-04-30T08:42:49.695Z,20.10
2019-04-30T08:44:58.585Z,19.80
2019-04-30T08:47:06.218Z,17.98
2019-04-30T08:49:14.302Z,23.75
2019-04-30T08:51:22.302Z,19.80
2019-04-30T08:53:33.467Z,17.92
2019-04-30T08:55:39.457Z,18.27
2019-04-30T08:57:47.210Z,17.67
2019-04-30T08:59:54.951Z,16.40
2019-04-30T09:02:12.841Z,20.00
2019-04-30T09:04:11.994Z,19.67
2019-04-30T09:06:25.466Z,20.62
2019-04-30T09:08:33.455Z,18.87
2019-04-30T09:10:41.107Z,20.08
2019-04-30T09:12:49.499Z,22.27
2019-04-30T09:14:59.128Z,16.42
2019-04-30T09:17:09.170Z,22.23
2019-04-30T09:19:16.363Z,20.00
2019-04-30T09:21:23.971Z,16.45
2019-04-30T09:23:43.355Z,20.90
2019-04-30T09:25:40.789Z,17.82
2019-04-30T09:27:48.909Z,14.85
2019-04-30T09:29:58.764Z,23.75
2019-04-30T09:32:06.062Z,18.15
2019-04-30T09:34:17.747Z,15.20
2019-04-30T09:36:23.056Z,20.12
2019-04-30T09:38:30.718Z,17.73
2019-04-30T09:40:41.566Z,16.32
2019-04-30T09:42:48.756Z,17.35
2019-04-30T09:44:57.790Z,24.77
2019-04-30T09:47:05.838Z,16.82
2019-04-30T09:49:13.325Z,15.32
2019-04-30T09:51:24.095Z,18.27
2019-04-30T09:53:31.060Z,20.92
2019-04-30T09:55:40.538Z,15.85
2019-04-30T09:57:48.923Z,16.55
2019-04-30T09:59:56.753Z,16.73
2019-04-30T10:02:04.205Z,16.17
2019-04-30T10:04:12.401Z,23.15
2019-04-30T10:06:20.579Z,18.57
2019-04-30T10:08:30.728Z,15.03
2019-04-30T10:10:44.588Z,16.55
2019-04-30T10:12:52.163Z,11.75
2019-04-30T10:14:59.938Z,16.17
2019-04-30T10:17:13.965Z,14.05
2019-04-30T10:19:21.780Z,15.80
2019-04-30T10:21:29.389Z,17.73
2019-04-30T10:23:36.918Z,12.63
2019-04-30T10:25:44.824Z,16.73
2019-04-30T10:27:53.086Z,17.00
2019-04-30T10:30:01.414Z,14.75
2019-04-30T10:32:09.477Z,16.60
2019-04-30T10:34:18.228Z,13.13
2019-04-30T10:36:26.073Z,14.63
2019-04-30T10:38:33.985Z,18.23
2019-04-30T10:40:41.785Z,19.00
2019-04-30T10:42:49.363Z,14.80
2019-04-30T10:44:59.976Z,18.12
2019-04-30T10:47:06.233Z,17.00
2019-04-30T10:49:14.246Z,14.28
2019-04-30T10:51:21.838Z,16.17
2019-04-30T10:53:29.674Z,16.37
2019-04-30T10:55:38.763Z,11.43
2019-04-30T10:57:46.536Z,14.90
2019-04-30T10:59:54.103Z,17.48
2019-04-30T11:02:01.769Z,17.05
2019-04-30T11:04:10.377Z,14.65
2019-04-30T11:06:19.170Z,17.80
2019-04-30T11:08:26.781Z,15.18
2019-04-30T11:10:35.060Z,16.32
2019-04-30T11:12:42.660Z,16.95
2019-04-30T11:14:50.343Z,16.67
2019-04-30T11:16:59.925Z,20.23
2019-04-30T11:19:09.311Z,11.20
2019-04-30T11:21:17.667Z,17.73
2019-04-30T11:23:26.518Z,21.37
2019-04-30T11:25:34.977Z,18.65
2019-04-30T11:27:43.746Z,17.05
2019-04-30T11:29:51.804Z,17.10
2019-04-30T11:32:05.299Z,14.93
2019-04-30T11:34:13.215Z,12.47
2019-04-30T11:36:20.856Z,15.23
2019-04-30T11:38:29.943Z,19.65
2019-04-30T11:40:39.889Z,20.82
2019-04-30T11:42:47.392Z,14.40
2019-04-30T11:44:55.073Z,16.35
2019-04-30T11:47:33.483Z,14.28
2019-04-30T11:49:41.162Z,15.55
2019-04-30T11:51:48.841Z,14.20
2019-04-30T11:53:56.561Z,14.28
2019-04-30T11:56:05.187Z,18.87
2019-04-30T11:58:21.343Z,14.90
2019-04-30T12:00:29.660Z,17.90
2019-04-30T12:02:41.392Z,18.65
2019-04-30T12:04:49.523Z,12.88
2019-04-30T12:06:58.949Z,12.40
2019-04-30T12:09:28.510Z,13.98
2019-04-30T12:11:37.248Z,17.67
2019-04-30T12:13:44.849Z,16.45
2019-04-30T12:15:52.998Z,12.13
2019-04-30T12:18:00.569Z,14.68
2019-04-30T12:20:08.826Z,13.28
2019-04-30T12:22:16.339Z,12.53
2019-04-30T12:24:24.357Z,14.93
2019-04-30T12:26:32.156Z,15.90
2019-04-30T12:28:40.162Z,13.20
2019-04-30T12:30:48.939Z,12.07
2019-04-30T12:32:56.827Z,11.78
2019-04-30T12:35:04.975Z,13.40
2019-04-30T12:37:12.682Z,17.10
2019-04-30T12:39:20.535Z,12.90
2019-04-30T12:41:28.347Z,13.35
2019-04-30T12:43:36.372Z,17.92
2019-04-30T12:45:43.888Z,15.58
2019-04-30T12:47:55.803Z,15.32
2019-04-30T12:50:21.717Z,12.40
2019-04-30T12:52:34.414Z,12.05
2019-04-30T12:54:50.586Z,8.95
2019-04-30T12:57:11.242Z,13.28
2019-04-30T12:59:19.033Z,16.12
2019-04-30T13:01:31.681Z,16.23
2019-04-30T13:03:36.509Z,12.30
2019-04-30T13:05:44.374Z,13.32
2019-04-30T13:07:52.797Z,14.38
2019-04-30T13:10:02.160Z,13.83
2019-04-30T13:12:11.268Z,11.63
2019-04-30T13:14:20.219Z,15.03
2019-04-30T13:16:29.216Z,21.70
2019-04-30T13:18:36.925Z,9.93
2019-04-30T13:20:44.872Z,11.83
2019-04-30T13:22:52.728Z,11.83
2019-04-30T13:25:00.464Z,13.25
2019-04-30T13:27:09.462Z,8.43
2019-04-30T13:29:21.748Z,16.82
2019-04-30T13:31:29.532Z,13.22
2019-04-30T13:33:42.793Z,11.68
2019-04-30T13:35:50.857Z,13.13
2019-04-30T13:38:03.729Z,15.93
2019-04-30T13:40:36.717Z,15.60
2019-04-30T13:42:48.825Z,15.25
2019-04-30T13:44:56.457Z,13.32
2019-04-30T13:47:04.245Z,10.88
2019-04-30T13:49:11.952Z,13.93
2019-04-30T13:51:19.614Z,11.63
2019-04-30T13:53:28.436Z,16.02
2019-04-30T13:55:43.704Z,13.80
2019-04-30T13:57:45.262Z,13.45
2019-04-30T13:59:52.964Z,15.88
2019-04-30T14:02:00.848Z,27.82
2019-04-30T14:04:27.363Z,11.78
2019-04-30T14:06:38.833Z,12.63
2019-04-30T14:08:50.151Z,12.33
2019-04-30T14:10:59.215Z,14.03
2019-04-30T14:13:08.921Z,13.90
2019-04-30T14:15:19.093Z,15.30
2019-04-30T14:17:26.763Z,16.05
2019-04-30T14:19:34.381Z,14.03
2019-04-30T14:21:42.222Z,12.07
2019-04-30T14:23:49.800Z,15.10
2019-04-30T14:26:00.887Z,12.03
2019-04-30T14:28:08.937Z,10.98
2019-04-30T14:30:19.181Z,12.18
2019-04-30T14:32:28.541Z,12.33
2019-04-30T14:34:36.363Z,12.90
2019-04-30T14:36:44.054Z,9.75
2019-04-30T14:38:51.771Z,13.45
2019-04-30T14:41:00.687Z,11.10
2019-04-30T14:43:19.654Z,10.80
2019-04-30T14:45:31.616Z,12.43
2019-04-30T14:47:47.899Z,14.00
2019-04-30T14:50:14.811Z,17.00
2019-04-30T14:52:23.164Z,12.88
2019-04-30T14:54:50.929Z,13.70
2019-04-30T14:57:03.414Z,12.30
2019-04-30T14:59:39.236Z,11.60
2019-04-30T15:02:00.945Z,12.23
2019-04-30T15:04:08.599Z,10.03
2019-04-30T15:06:16.288Z,15.15
2019-04-30T15:08:24.101Z,13.15
2019-04-30T15:10:31.846Z,13.80
2019-04-30T15:12:39.538Z,14.35
2019-04-30T15:14:49.158Z,13.75
2019-04-30T15:16:56.715Z,13.50
2019-04-30T15:19:04.562Z,14.87
2019-04-30T15:21:12.326Z,13.15
2019-04-30T15:23:56.371Z,16.25
2019-04-30T15:25:58.638Z,13.15
2019-04-30T15:28:06.538Z,13.43
2019-04-30T15:30:21.733Z,14.45
2019-04-30T15:32:28.477Z,14.68
2019-04-30T15:34:35.960Z,16.97
2019-04-30T15:36:43.655Z,11.22
2019-04-30T15:39:02.647Z,15.40
2019-04-30T15:41:10.380Z,14.50
2019-04-30T15:43:18.292Z,11.63
2019-04-30T15:45:25.966Z,13.50
2019-04-30T15:47:34.340Z,13.78
2019-04-30T15:49:42.357Z,15.28
2019-04-30T15:51:50.485Z,16.23
2019-04-30T15:53:58.379Z,10.80
2019-04-30T15:56:06.165Z,11.70
2019-04-30T15:58:20.161Z,12.63
2019-04-30T16:00:31.285Z,13.60
2019-04-30T16:02:56.893Z,12.35
2019-04-30T16:05:11.325Z,13.75
2019-04-30T16:07:19.675Z,13.65
2019-04-30T16:09:33.214Z,15.25
2019-04-30T16:11:49.190Z,13.93
2019-04-30T16:14:13.759Z,13.78
2019-04-30T16:16:21.652Z,11.85
2019-04-30T16:18:35.703Z,11.88
2019-04-30T16:20:43.575Z,12.25
2019-04-30T16:22:51.238Z,15.28
2019-04-30T16:25:00.608Z,14.83
2019-04-30T16:27:09.238Z,19.30
2019-04-30T16:29:17.196Z,17.02
2019-04-30T16:31:25.079Z,16.62
2019-04-30T16:33:32.711Z,17.77
2019-04-30T16:35:40.378Z,14.40
2019-04-30T16:37:49.624Z,19.80
2019-04-30T16:39:57.416Z,21.48
2019-04-30T16:42:05.199Z,15.88
2019-04-30T16:44:12.875Z,22.30
2019-04-30T16:46:20.595Z,12.75
2019-04-30T16:48:28.999Z,12.58
2019-04-30T16:50:36.765Z,11.90
2019-04-30T16:52:44.320Z,14.07
2019-04-30T16:54:52.026Z,11.08
2019-04-30T16:57:04.167Z,11.73
2019-04-30T16:59:10.915Z,13.60
2019-04-30T17:01:18.587Z,10.98
2019-04-30T17:03:36.127Z,10.10
2019-04-30T17:05:52.285Z,13.13
2019-04-30T17:08:33.882Z,15.90
2019-04-30T17:10:56.658Z,15.53
2019-04-30T17:13:29.361Z,10.63
2019-04-30T17:15:37.781Z,14.75
2019-04-30T17:17:45.684Z,15.08
2019-04-30T17:19:53.105Z,15.98
2019-04-30T17:22:00.997Z,14.05
2019-04-30T17:24:08.875Z,14.73
2019-04-30T17:26:16.452Z,13.60
2019-04-30T17:28:24.073Z,16.00
2019-04-30T17:30:31.686Z,12.55
2019-04-30T17:32:39.562Z,12.85
2019-04-30T17:34:49.170Z,16.23
2019-04-30T17:36:56.407Z,17.00
2019-04-30T17:39:04.333Z,12.07
2019-04-30T17:41:12.217Z,10.58
2019-04-30T17:43:20.063Z,12.58
2019-04-30T17:45:29.196Z,12.07
2019-04-30T17:47:36.882Z,13.60
2019-04-30T17:49:44.812Z,13.15
2019-04-30T17:51:52.546Z,13.62
2019-04-30T17:54:14.218Z,14.78
2019-04-30T17:56:21.792Z,13.43
2019-04-30T17:58:29.522Z,13.05
2019-04-30T18:00:39.066Z,13.53
2019-04-30T18:02:46.997Z,14.35
2019-04-30T18:04:54.568Z,13.15
2019-04-30T18:07:02.747Z,14.98
2019-04-30T18:09:11.238Z,15.00
2019-04-30T18:11:20.063Z,20.23
2019-04-30T18:13:27.708Z,12.47
2019-04-30T18:15:35.687Z,17.42
2019-04-30T18:17:45.973Z,15.63
2019-04-30T18:20:10.951Z,18.60
2019-04-30T18:22:33.333Z,21.75
2019-04-30T18:24:56.035Z,13.22
2019-04-30T18:27:09.717Z,17.00
2019-04-30T18:29:17.600Z,15.18
2019-04-30T18:31:25.521Z,13.38
2019-04-30T18:33:33.230Z,14.00
2019-04-30T18:35:42.058Z,15.95
2019-04-30T18:37:49.872Z,15.18
2019-04-30T18:40:00.032Z,16.05
2019-04-30T18:42:10.765Z,19.55
2019-04-30T18:44:16.519Z,16.85
2019-04-30T18:46:24.369Z,22.77
2019-04-30T18:48:32.922Z,18.95
2019-04-30T18:50:41.000Z,21.25
2019-04-30T18:52:50.679Z,19.73
2019-04-30T18:54:59.482Z,23.27
2019-04-30T18:57:07.492Z,23.95
2019-04-30T18:59:15.375Z,23.02
2019-04-30T19:01:23.308Z,19.75
2019-04-30T19:03:30.875Z,21.93
2019-04-30T19:05:40.399Z,22.52
2019-04-30T19:07:59.080Z,23.92
2019-04-30T19:10:20.436Z,22.17
2019-04-30T19:12:43.657Z,23.35
2019-04-30T19:15:16.187Z,26.25
2019-04-30T19:17:46.880Z,22.02
2019-04-30T19:20:15.501Z,34.50
2019-04-30T19:22:23.599Z,48.35
2019-04-30T19:24:31.388Z,56.30
2019-04-30T19:26:39.376Z,77.40
2019-04-30T19:28:49.181Z,78.37
2019-04-30T19:30:58.795Z,87.80
2019-04-30T19:33:06.148Z,75.35
2019-04-30T19:35:13.931Z,77.35
2019-04-30T19:37:21.576Z,85.50
2019-04-30T19:39:32.366Z,70.33
2019-04-30T19:41:39.297Z,83.20
2019-04-30T19:43:47.217Z,88.85
2019-04-30T19:45:55.392Z,84.10
2019-04-30T19:48:02.871Z,76.07
2019-04-30T19:50:13.887Z,64.90
2019-04-30T19:52:20.606Z,78.80
2019-04-30T19:54:29.374Z,78.30
2019-04-30T19:56:38.833Z,61.03
2019-04-30T19:58:59.155Z,60.73
2019-04-30T20:00:56.090Z,55.50
2019-04-30T20:03:03.986Z,48.83
2019-04-30T20:05:11.883Z,51.50
2019-04-30T20:07:19.685Z,47.33
2019-04-30T20:09:29.143Z,53.10
2019-04-30T20:11:37.151Z,54.63
2019-04-30T20:13:45.167Z,52.30
2019-04-30T20:15:53.124Z,49.73
2019-04-30T20:18:01.200Z,60.93
2019-04-30T20:20:09.462Z,53.20
2019-04-30T20:22:19.421Z,64.00
2019-04-30T20:24:27.099Z,60.00
2019-04-30T20:26:34.887Z,56.93
2019-04-30T20:28:42.768Z,52.87
2019-04-30T20:30:50.923Z,56.47
2019-04-30T20:32:59.401Z,51.40
2019-04-30T20:35:09.759Z,52.13
2019-04-30T20:37:19.520Z,52.50
2019-04-30T20:39:35.901Z,47.93
2019-04-30T20:41:43.557Z,60.15
2019-04-30T20:43:51.339Z,46.27
2019-04-30T20:46:00.751Z,46.30
2019-04-30T20:48:09.020Z,41.50
2019-04-30T20:50:16.923Z,42.77
2019-04-30T20:52:24.667Z,41.70
2019-04-30T20:54:32.446Z,52.13
2019-04-30T20:56:40.383Z,49.87
2019-04-30T20:58:55.622Z,50.97
2019-04-30T21:01:04.057Z,48.43
2019-04-30T21:03:09.550Z,43.27
2019-04-30T21:05:16.880Z,41.87
2019-04-30T21:07:24.714Z,46.20
2019-04-30T21:09:32.469Z,41.10
2019-04-30T21:11:40.613Z,36.67
2019-04-30T21:13:49.106Z,37.07
2019-04-30T21:15:56.987Z,36.27
2019-04-30T21:18:05.024Z,36.20
2019-04-30T21:20:13.209Z,37.83
2019-04-30T21:22:22.889Z,36.27
2019-04-30T21:24:30.405Z,41.13
2019-04-30T21:26:38.222Z,41.77
2019-04-30T21:28:46.109Z,39.83
2019-04-30T21:30:54.086Z,41.63
2019-04-30T21:33:18.965Z,37.83
2019-04-30T21:35:50.701Z,43.07
2019-04-30T21:37:59.030Z,43.30
2019-04-30T21:40:09.725Z,40.83
2019-04-30T21:42:17.639Z,40.90
2019-04-30T21:44:25.502Z,41.30
2019-04-30T21:46:33.070Z,41.23
2019-04-30T21:48:40.937Z,42.67
2019-04-30T21:50:49.726Z,41.03
2019-04-30T21:52:59.290Z,41.77
2019-04-30T21:55:09.318Z,38.93
2019-04-30T21:57:17.090Z,35.97
2019-04-30T21:59:25.027Z,37.43
2019-04-30T22:01:33.327Z,39.17
2019-04-30T22:03:41.526Z,44.20
2019-04-30T22:05:49.365Z,44.77
2019-04-30T22:07:59.157Z,37.70
2019-04-30T22:10:07.117Z,33.53
2019-04-30T22:12:14.789Z,41.00
2019-04-30T22:14:22.676Z,43.27
2019-04-30T22:16:30.442Z,33.40
2019-04-30T22:18:38.165Z,35.50
2019-04-30T22:20:45.844Z,41.67
2019-04-30T22:22:53.591Z,49.20
2019-04-30T22:25:01.258Z,45.30
2019-04-30T22:27:08.815Z,45.13
2019-04-30T22:29:16.403Z,61.03
2019-04-30T22:31:23.913Z,48.67
2019-04-30T22:33:31.513Z,77.10
2019-04-30T22:36:02.877Z,177.70
2019-04-30T22:38:12.164Z,142.17
2019-04-30T22:40:19.945Z,69.97
2019-04-30T22:42:34.787Z,156.20
2019-04-30T22:44:42.310Z,90.03
2019-04-30T22:46:50.058Z,95.97
2019-04-30T22:48:57.714Z,94.43
2019-04-30T22:51:05.394Z,81.10
2019-04-30T22:53:13.047Z,89.77
2019-04-30T22:55:20.600Z,109.30
2019-04-30T22:57:28.375Z,60.53
2019-04-30T22:59:35.912Z,47.97
2019-04-30T23:02:01.965Z,46.60
2019-04-30T23:04:13.410Z,102.57
2019-04-30T23:06:21.194Z,54.33
2019-04-30T23:08:29.086Z,58.83
2019-04-30T23:10:36.935Z,41.93
2019-04-30T23:12:44.618Z,56.63
2019-04-30T23:14:52.342Z,35.43
2019-04-30T23:17:00.247Z,33.77
2019-04-30T23:19:07.968Z,31.13
2019-04-30T23:21:15.599Z,39.07
2019-04-30T23:23:23.339Z,33.50
2019-04-30T23:25:30.999Z,36.40
2019-04-30T23:27:38.532Z,77.97
2019-04-30T23:29:46.213Z,55.90
2019-04-30T23:31:53.991Z,55.47
2019-04-30T23:34:01.561Z,37.33
2019-04-30T23:36:09.129Z,37.20
2019-04-30T23:38:16.934Z,38.20
2019-04-30T23:40:28.287Z,36.90
2019-04-30T23:42:36.163Z,35.53
2019-04-30T23:44:43.793Z,30.27
2019-04-30T23:46:51.517Z,44.23
2019-04-30T23:48:59.231Z,33.03
2019-04-30T23:51:06.857Z,36.03
2019-04-30T23:53:14.522Z,36.53
2019-04-30T23:55:22.162Z,53.47
2019-04-30T23:57:29.881Z,33.83
2019-04-30T23:59:37.602Z,32.30
